Empire State — WDE4431 — position and weather

sailwx.info

Track history (hours):
 
Tides and Currents Weather Stations Pressure Air Temp Water Temp Dewpoint Dewpoint Depression Visibility Wind Speed Wind Dir Waves Ship Positions

Empire State

Owner: Crowley Petroleum Services, Jacksonville, FL. More information available from US FCC via Universal Licensing System and Coast Guard Vessel Documentation Center.

Last reported at 2014-Oct-21 02:22 UTC. Time now 2014-Oct-21 05:29 UTC.
Position N 38°04' W 122°15'.

Length 183 m; draft 10 m.

Type: Military. MMSI: 367353080.

Date/timePositionNaut miles runAvg speedWind from/ knotsBaromVisibWave heightAir tempDewpointWater temp
2014-Oct-21 02:22N 38°04' W 122°15'2 1.9
2014-Oct-21 01:33N 38°04' W 122°17'7 6.8
2014-Oct-21 00:33N 38°01' W 122°24'1110.8
2014-Oct-20 23:34N 37°50' W 122°24'5 4.8
2014-Oct-20 22:31N 37°46' W 122°21'0 0.0
2014-Oct-20 21:31N 37°46' W 122°21'0 0.0
2014-Oct-20 20:31N 37°46' W 122°21'0 0.0
2014-Oct-20 19:31N 37°46' W 122°21'0 0.2
2014-Oct-20 18:31N 37°46' W 122°21'0 0.1
2014-Oct-20 17:31N 37°45' W 122°21'0 0.0
2014-Oct-20 16:31N 37°45' W 122°21'0 0.0
2014-Oct-20 15:31N 37°45' W 122°21'0 0.0
2014-Oct-20 14:31N 37°46' W 122°21'0 0.1
2014-Oct-20 13:31N 37°45' W 122°21'0 0.1
2014-Oct-20 12:31N 37°46' W 122°21'0 0.2
2014-Oct-20 11:31N 37°46' W 122°21'0 0.0
2014-Oct-20 10:31N 37°46' W 122°21'0 0.0
2014-Oct-20 09:31N 37°46' W 122°21'0 0.0
2014-Oct-20 08:31N 37°46' W 122°21'0 0.0
2014-Oct-20 07:31N 37°46' W 122°21'0 0.0
2014-Oct-20 06:31N 37°46' W 122°21'0 0.2
2014-Oct-20 05:31N 37°46' W 122°21'0 0.1
2014-Oct-20 04:31N 37°46' W 122°21'0 0.0
2014-Oct-20 03:31N 37°46' W 122°21'0 0.0
2014-Oct-20 02:31N 37°46' W 122°21'0 0.0
2014-Oct-20 01:31N 37°45' W 122°21'0 0.0
2014-Oct-20 00:31N 37°46' W 122°21'0 0.1
2014-Oct-19 23:31N 37°46' W 122°21'0 0.1
2014-Oct-19 22:31N 37°46' W 122°21'0 0.0
2014-Oct-19 21:31N 37°46' W 122°21'1 1.3
2014-Oct-19 20:33N 37°47' W 122°22'9 8.8
2014-Oct-19 19:33N 37°47' W 122°33'1111.3
2014-Oct-19 18:33N 37°42' W 122°45'1110.8
2014-Oct-19 17:33N 37°36' W 122°57'10 9.9
2014-Oct-19 16:33N 37°33' W 123°09'1210.3
2014-Oct-19 15:22N 37°34' W 123°24'910.0
2014-Oct-19 14:28N 37°35' W 123°35'1211.6
2014-Oct-19 13:26N 37°36' W 123°50'51210.2
2014-Oct-17 11:24N 46°08' W 124°22'1011.6
2014-Oct-17 10:33N 46°13' W 124°09'1211.6
2014-Oct-17 09:33N 46°11' W 123°53'1312.9
2014-Oct-17 08:33N 46°15' W 123°35'5210.4
2014-Oct-17 03:33N 45°38' W 122°42'0 0.1
2014-Oct-17 02:32N 45°38' W 122°42'0 0.0
2014-Oct-17 01:32N 45°38' W 122°42'0 0.0
2014-Oct-15 13:33N 45°38' W 122°43'50 8.3
2014-Oct-15 07:33N 46°16' W 123°29'1110.8
2014-Oct-15 06:33N 46°14' W 123°44'9 8.6
2014-Oct-15 05:33N 46°12' W 123°56'8 8.1
2014-Oct-15 04:33N 46°14' W 124°08'1212.1
2014-Oct-15 03:33N 46°09' W 124°24'35012.4
2014-Oct-13 23:19N 40°23' W 125°44'5413.3
2014-Oct-13 19:18N 39°33' W 125°21'1013.1
2014-Oct-13 18:32N 39°24' W 125°15'1312.9
2014-Oct-13 17:32N 39°12' W 125°08'1413.1
2014-Oct-13 16:27N 38°60' W 124°59'1213.4
2014-Oct-13 15:34N 38°49' W 124°51'1313.1
2014-Oct-13 14:33N 38°38' W 124°43'1313.5
2014-Oct-13 13:33N 38°26' W 124°35'1313.1
2014-Oct-13 12:33N 38°16' W 124°24'1313.0
2014-Oct-13 11:33N 38°07' W 124°12'1313.4
2014-Oct-13 10:33N 37°56' W 124°02'1313.1
2014-Oct-13 09:33N 37°46' W 123°51'1312.9
2014-Oct-13 08:33N 37°36' W 123°41'1110.9
2014-Oct-13 07:33N 37°28' W 123°32'9 9.5
2014-Oct-13 06:33N 37°27' W 123°20'1312.7
2014-Oct-13 05:33N 37°33' W 123°06'1111.1
2014-Oct-13 04:33N 37°39' W 122°54'1110.8
2014-Oct-13 03:33N 37°44' W 122°42'1110.9
2014-Oct-13 02:33N 37°49' W 122°30'9 8.9
2014-Oct-13 01:34N 37°58' W 122°27'1010.0
2014-Oct-13 00:33N 38°04' W 122°17'2 1.6
2014-Oct-12 23:33N 38°04' W 122°15'0 0.0
2014-Oct-12 17:22N 38°04' W 122°15'0 0.0
2014-Oct-12 12:28N 38°04' W 122°15'0 0.0
2014-Oct-12 11:28N 38°04' W 122°15'0 0.0
2014-Oct-12 10:28N 38°04' W 122°15'0 0.0
2014-Oct-12 09:22N 38°04' W 122°15'0 0.0
2014-Oct-11 21:10N 38°04' W 122°15'0 0.0
2014-Oct-11 14:33N 38°04' W 122°15'4 4.0
2014-Oct-11 13:33N 38°03' W 122°20'1010.1
2014-Oct-11 12:33N 37°55' W 122°27'9 9.0
2014-Oct-11 11:34N 37°47' W 122°33'1110.9
2014-Oct-11 10:33N 37°42' W 122°45'1110.7
2014-Oct-11 09:33N 37°36' W 122°56'8 8.4
2014-Oct-11 08:33N 37°31' W 123°04'7 6.9
2014-Oct-11 07:33N 37°25' W 123°09'7 6.6
2014-Oct-11 06:33N 37°20' W 123°15'7 6.7
2014-Oct-11 05:33N 37°14' W 123°19'7 6.7
2014-Oct-11 04:33N 37°08' W 123°23'9 8.5
2014-Oct-11 03:33N 37°01' W 123°28'9 8.9
2014-Oct-11 02:33N 36°54' W 123°35'  
Track history (hours):
 
Tides and Currents Weather Stations Pressure Air Temp Water Temp Dewpoint Dewpoint Depression Visibility Wind Speed Wind Dir Waves Ship Positions

Empire State

Owner: Crowley Petroleum Services, Jacksonville, FL. More information available from US FCC via Universal Licensing System and Coast Guard Vessel Documentation Center.

Last reported at 2014-Oct-21 02:22 UTC. Time now 2014-Oct-21 05:29 UTC.
Position N 38°04' W 122°15'.

Length 183 m; draft 10 m.

Type: Military. MMSI: 367353080.

Date/timePositionNaut miles runAvg speedWind from/ knotsBaromVisibWave heightAir tempDewpointWater temp
2014-Oct-21 02:22N 38°04' W 122°15'2 1.9
2014-Oct-21 01:33N 38°04' W 122°17'7 6.8
2014-Oct-21 00:33N 38°01' W 122°24'1110.8
2014-Oct-20 23:34N 37°50' W 122°24'5 4.8
2014-Oct-20 22:31N 37°46' W 122°21'0 0.0
2014-Oct-20 21:31N 37°46' W 122°21'0 0.0
2014-Oct-20 20:31N 37°46' W 122°21'0 0.0
2014-Oct-20 19:31N 37°46' W 122°21'0 0.2
2014-Oct-20 18:31N 37°46' W 122°21'0 0.1
2014-Oct-20 17:31N 37°45' W 122°21'0 0.0
2014-Oct-20 16:31N 37°45' W 122°21'0 0.0
2014-Oct-20 15:31N 37°45' W 122°21'0 0.0
2014-Oct-20 14:31N 37°46' W 122°21'0 0.1
2014-Oct-20 13:31N 37°45' W 122°21'0 0.1
2014-Oct-20 12:31N 37°46' W 122°21'0 0.2
2014-Oct-20 11:31N 37°46' W 122°21'0 0.0
2014-Oct-20 10:31N 37°46' W 122°21'0 0.0
2014-Oct-20 09:31N 37°46' W 122°21'0 0.0
2014-Oct-20 08:31N 37°46' W 122°21'0 0.0
2014-Oct-20 07:31N 37°46' W 122°21'0 0.0
2014-Oct-20 06:31N 37°46' W 122°21'0 0.2
2014-Oct-20 05:31N 37°46' W 122°21'0 0.1
2014-Oct-20 04:31N 37°46' W 122°21'0 0.0
2014-Oct-20 03:31N 37°46' W 122°21'0 0.0
2014-Oct-20 02:31N 37°46' W 122°21'0 0.0
2014-Oct-20 01:31N 37°45' W 122°21'0 0.0
2014-Oct-20 00:31N 37°46' W 122°21'0 0.1
2014-Oct-19 23:31N 37°46' W 122°21'0 0.1
2014-Oct-19 22:31N 37°46' W 122°21'0 0.0
2014-Oct-19 21:31N 37°46' W 122°21'1 1.3
2014-Oct-19 20:33N 37°47' W 122°22'9 8.8
2014-Oct-19 19:33N 37°47' W 122°33'1111.3
2014-Oct-19 18:33N 37°42' W 122°45'1110.8
2014-Oct-19 17:33N 37°36' W 122°57'10 9.9
2014-Oct-19 16:33N 37°33' W 123°09'1210.3
2014-Oct-19 15:22N 37°34' W 123°24'910.0
2014-Oct-19 14:28N 37°35' W 123°35'1211.6
2014-Oct-19 13:26N 37°36' W 123°50'51210.2
2014-Oct-17 11:24N 46°08' W 124°22'1011.6
2014-Oct-17 10:33N 46°13' W 124°09'1211.6
2014-Oct-17 09:33N 46°11' W 123°53'1312.9
2014-Oct-17 08:33N 46°15' W 123°35'5210.4
2014-Oct-17 03:33N 45°38' W 122°42'0 0.1
2014-Oct-17 02:32N 45°38' W 122°42'0 0.0
2014-Oct-17 01:32N 45°38' W 122°42'0 0.0
2014-Oct-15 13:33N 45°38' W 122°43'50 8.3
2014-Oct-15 07:33N 46°16' W 123°29'1110.8
2014-Oct-15 06:33N 46°14' W 123°44'9 8.6
2014-Oct-15 05:33N 46°12' W 123°56'8 8.1
2014-Oct-15 04:33N 46°14' W 124°08'1212.1
2014-Oct-15 03:33N 46°09' W 124°24'35012.4
2014-Oct-13 23:19N 40°23' W 125°44'5413.3
2014-Oct-13 19:18N 39°33' W 125°21'1013.1
2014-Oct-13 18:32N 39°24' W 125°15'1312.9
2014-Oct-13 17:32N 39°12' W 125°08'1413.1
2014-Oct-13 16:27N 38°60' W 124°59'1213.4
2014-Oct-13 15:34N 38°49' W 124°51'1313.1
2014-Oct-13 14:33N 38°38' W 124°43'1313.5
2014-Oct-13 13:33N 38°26' W 124°35'1313.1
2014-Oct-13 12:33N 38°16' W 124°24'1313.0
2014-Oct-13 11:33N 38°07' W 124°12'1313.4
2014-Oct-13 10:33N 37°56' W 124°02'1313.1
2014-Oct-13 09:33N 37°46' W 123°51'1312.9
2014-Oct-13 08:33N 37°36' W 123°41'1110.9
2014-Oct-13 07:33N 37°28' W 123°32'9 9.5
2014-Oct-13 06:33N 37°27' W 123°20'1312.7
2014-Oct-13 05:33N 37°33' W 123°06'1111.1
2014-Oct-13 04:33N 37°39' W 122°54'1110.8
2014-Oct-13 03:33N 37°44' W 122°42'1110.9
2014-Oct-13 02:33N 37°49' W 122°30'9 8.9
2014-Oct-13 01:34N 37°58' W 122°27'1010.0
2014-Oct-13 00:33N 38°04' W 122°17'2 1.6
2014-Oct-12 23:33N 38°04' W 122°15'0 0.0
2014-Oct-12 17:22N 38°04' W 122°15'0 0.0
2014-Oct-12 12:28N 38°04' W 122°15'0 0.0
2014-Oct-12 11:28N 38°04' W 122°15'0 0.0
2014-Oct-12 10:28N 38°04' W 122°15'0 0.0
2014-Oct-12 09:22N 38°04' W 122°15'0 0.0
2014-Oct-11 21:10N 38°04' W 122°15'0 0.0
2014-Oct-11 14:33N 38°04' W 122°15'4 4.0
2014-Oct-11 13:33N 38°03' W 122°20'1010.1
2014-Oct-11 12:33N 37°55' W 122°27'9 9.0
2014-Oct-11 11:34N 37°47' W 122°33'1110.9
2014-Oct-11 10:33N 37°42' W 122°45'1110.7
2014-Oct-11 09:33N 37°36' W 122°56'8 8.4
2014-Oct-11 08:33N 37°31' W 123°04'7 6.9
2014-Oct-11 07:33N 37°25' W 123°09'7 6.6
2014-Oct-11 06:33N 37°20' W 123°15'7 6.7
2014-Oct-11 05:33N 37°14' W 123°19'7 6.7
2014-Oct-11 04:33N 37°08' W 123°23'9 8.5
2014-Oct-11 03:33N 37°01' W 123°28'9 8.9
2014-Oct-11 02:33N 36°54' W 123°35'  

Dump ship's entire track history